Time;durP1;ratioP1;P1;durP2;ratioP2;P2;SDS_P1;SDS_P2;PMS_P1;PMS_P2;Temp;Humidity;BMP_temperature;BMP_pressure;BME280_temperature;BME280_humidity;BME280_pressure;Samples;Min_cycle;Max_cycle;Signal;HPM_P1;HPM_P2
2022/01/22 00:02:13;;;;;;;6.75;3.92;;;7.00;67.70;;;;;;5067886;28;20064;-78
2022/01/22 00:04:39;;;;;;;6.93;3.35;;;7.00;67.70;;;;;;5066858;28;20027;-79
2022/01/22 00:07:06;;;;;;;5.78;4.38;;;7.00;67.70;;;;;;5065549;28;20029;-79
2022/01/22 00:09:38;;;;;;;4.72;3.67;;;7.00;67.70;;;;;;5066931;28;20056;-79
2022/01/22 00:12:07;;;;;;;6.67;4.67;;;7.00;67.70;;;;;;5082431;28;20029;-79
2022/01/22 00:14:36;;;;;;;4.43;3.83;;;6.90;67.60;;;;;;5065568;28;20078;-79
2022/01/22 00:17:03;;;;;;;4.25;3.83;;;6.90;67.60;;;;;;5065774;28;20520;-79
2022/01/22 00:19:29;;;;;;;3.97;3.60;;;6.90;67.60;;;;;;5065454;28;20477;-79
2022/01/22 00:21:55;;;;;;;5.50;4.30;;;6.90;67.60;;;;;;5082378;28;20044;-79
2022/01/22 00:24:22;;;;;;;4.80;3.78;;;6.90;67.70;;;;;;5067081;28;20037;-79
2022/01/22 00:26:48;;;;;;;4.90;3.63;;;6.90;67.70;;;;;;5065892;28;20558;-79
2022/01/22 00:29:16;;;;;;;3.70;3.35;;;6.90;67.70;;;;;;5065189;28;20032;-79
2022/01/22 00:31:43;;;;;;;3.88;3.38;;;6.80;67.50;;;;;;5065849;28;20388;-79
2022/01/22 00:34:09;;;;;;;5.30;3.70;;;6.80;67.60;;;;;;5066812;28;20032;-80
2022/01/22 00:36:37;;;;;;;4.35;3.60;;;6.80;67.60;;;;;;5067030;28;20123;-79
2022/01/22 00:39:03;;;;;;;4.55;3.28;;;6.80;67.60;;;;;;5076912;28;20024;-80
2022/01/22 00:41:29;;;;;;;4.18;3.72;;;6.80;67.70;;;;;;5066070;28;20036;-80
2022/01/22 00:43:56;;;;;;;4.65;3.97;;;6.80;67.80;;;;;;5077623;28;20058;-79
2022/01/22 00:46:22;;;;;;;4.03;3.63;;;6.70;67.60;;;;;;5090685;28;20033;-80
2022/01/22 00:48:48;;;;;;;4.35;3.40;;;6.60;67.50;;;;;;5091012;28;20036;-80
2022/01/22 00:51:14;;;;;;;4.13;3.58;;;6.60;67.60;;;;;;5092071;28;20040;-80
2022/01/22 00:53:41;;;;;;;5.15;3.95;;;6.50;67.50;;;;;;5091650;28;20035;-80
2022/01/22 00:56:07;;;;;;;5.78;3.75;;;6.50;67.60;;;;;;5091132;28;20043;-79
2022/01/22 00:58:33;;;;;;;4.38;3.50;;;6.50;67.70;;;;;;5094884;28;20084;-80
2022/01/22 01:00:59;;;;;;;4.30;3.40;;;6.50;67.80;;;;;;5097782;28;20601;-79
2022/01/22 01:03:30;;;;;;;3.78;3.45;;;6.40;67.70;;;;;;5080756;28;20029;-79
2022/01/22 01:05:56;;;;;;;4.15;3.53;;;6.30;67.60;;;;;;5098435;28;20046;-79
2022/01/22 01:08:23;;;;;;;3.72;3.33;;;6.30;67.60;;;;;;5096875;28;20037;-79
2022/01/22 01:10:49;;;;;;;4.90;3.63;;;6.20;67.50;;;;;;5076042;28;20166;-79
2022/01/22 01:13:16;;;;;;;3.92;3.55;;;6.20;67.60;;;;;;5072257;28;20024;-79
2022/01/22 01:16:13;;;;;;;3.30;2.90;;;6.10;67.60;;;;;;5070853;28;20040;-79
2022/01/22 01:33:22;;;;;;;3.97;3.58;;;5.80;67.60;;;;;;5061598;28;20070;-78
2022/01/22 01:35:16;;;;;;;3.38;3.08;;;5.70;67.50;;;;;;5061878;28;20048;-79
2022/01/22 01:37:42;;;;;;;4.68;3.38;;;5.60;67.40;;;;;;5069232;28;20060;-79
2022/01/22 01:40:11;;;;;;;3.80;3.20;;;5.60;67.50;;;;;;5068845;28;20028;-79
2022/01/22 01:42:58;;;;;;;4.85;3.53;;;5.50;67.40;;;;;;5069211;28;20195;-79
2022/01/22 01:45:24;;;;;;;3.88;3.25;;;5.50;67.50;;;;;;5068856;28;20084;-79
2022/01/22 01:47:59;;;;;;;3.25;2.95;;;5.40;67.30;;;;;;5069511;28;20033;-80
2022/01/22 01:50:26;;;;;;;4.95;3.80;;;5.40;67.40;;;;;;5068693;28;20024;-79
2022/01/22 01:53:24;;;;;;;4.15;3.75;;;5.30;67.30;;;;;;5069506;28;20356;-79
2022/01/22 01:56:04;;;;;;;2.83;2.58;;;5.30;67.40;;;;;;5069994;28;20044;-80
2022/01/22 01:58:34;;;;;;;4.07;3.22;;;5.30;67.40;;;;;;5068669;28;20142;-79
2022/01/22 02:01:00;;;;;;;4.60;3.60;;;5.20;67.30;;;;;;5068659;28;20081;-79
2022/01/22 02:03:27;;;;;;;3.63;3.33;;;5.20;67.30;;;;;;5068327;28;20028;-79
2022/01/22 02:06:03;;;;;;;4.03;3.33;;;5.20;67.40;;;;;;5068826;28;20057;-80
2022/01/22 02:08:32;;;;;;;3.95;3.55;;;5.10;67.30;;;;;;5068549;28;20025;-79
2022/01/22 02:11:18;;;;;;;3.45;3.13;;;5.10;67.30;;;;;;5068061;28;20045;-81
2022/01/22 02:25:45;;;;;;;5.43;3.85;;;4.80;67.10;;;;;;5069583;28;20028;-80
2022/01/22 02:28:13;;;;;;;3.22;2.92;;;4.80;67.20;;;;;;5051559;28;20032;-80
2022/01/22 02:30:44;;;;;;;3.75;3.03;;;4.80;67.20;;;;;;5068052;28;20031;-79
2022/01/22 02:33:36;;;;;;;3.60;3.30;;;4.80;67.20;;;;;;5069283;28;20482;-80
2022/01/22 02:36:17;;;;;;;4.68;3.78;;;4.70;67.10;;;;;;5068519;28;20515;-79
2022/01/22 02:41:22;;;;;;;3.65;3.35;;;4.70;67.30;;;;;;5067911;28;20032;-79
2022/01/22 02:43:48;;;;;;;6.20;3.45;;;4.70;67.30;;;;;;5051338;28;20043;-79
2022/01/22 02:46:22;;;;;;;5.22;3.83;;;4.60;67.10;;;;;;5068856;28;20058;-80
2022/01/22 02:48:49;;;;;;;3.72;3.42;;;4.60;67.10;;;;;;5071830;28;20017;-79
2022/01/22 02:51:16;;;;;;;3.78;3.42;;;4.60;67.20;;;;;;5070714;28;20089;-79
2022/01/22 02:53:43;;;;;;;5.00;3.60;;;4.60;67.20;;;;;;5070787;28;20141;-79
2022/01/22 02:56:10;;;;;;;3.67;3.38;;;4.60;67.30;;;;;;5070495;28;20037;-79
2022/01/22 02:58:36;;;;;;;3.90;3.60;;;4.50;67.10;;;;;;5070799;28;20036;-79
2022/01/22 03:01:03;;;;;;;3.65;3.33;;;4.50;67.10;;;;;;5070639;28;20039;-79
2022/01/22 03:03:29;;;;;;;4.07;3.67;;;4.50;67.20;;;;;;5070741;28;20023;-79
2022/01/22 03:05:55;;;;;;;3.38;3.08;;;4.50;67.20;;;;;;5087541;28;20540;-81
2022/01/22 03:08:27;;;;;;;5.72;4.00;;;4.40;67.10;;;;;;5053861;28;20036;-81
2022/01/22 03:10:54;;;;;;;4.25;3.30;;;4.40;67.10;;;;;;5072092;28;20212;-81
2022/01/22 03:19:15;;;;;;;3.85;3.42;;;4.30;67.10;;;;;;5054144;28;20289;-80
2022/01/22 03:21:56;;;;;;;5.28;3.80;;;4.30;67.10;;;;;;5072066;28;20054;-80
2022/01/22 03:27:22;;;;;;;3.90;3.50;;;4.20;67.10;;;;;;5090187;28;20039;-80
2022/01/22 03:29:50;;;;;;;4.88;3.83;;;4.10;66.90;;;;;;5074552;28;20483;-80
2022/01/22 03:32:19;;;;;;;4.82;3.17;;;4.10;66.90;;;;;;5072698;28;20021;-79
2022/01/22 03:34:58;;;;;;;4.15;3.38;;;4.10;67.00;;;;;;5072370;28;20092;-80
2022/01/22 03:37:25;;;;;;;3.72;3.38;;;4.10;67.10;;;;;;5071317;28;20041;-81
2022/01/22 03:39:53;;;;;;;4.00;3.60;;;4.00;66.90;;;;;;5072098;28;20028;-80
2022/01/22 03:42:21;;;;;;;4.55;3.70;;;4.00;67.00;;;;;;5087820;28;20039;-80
2022/01/22 03:44:47;;;;;;;3.90;3.55;;;3.90;66.80;;;;;;5070800;28;20020;-78
2022/01/22 03:47:13;;;;;;;3.70;3.40;;;3.90;66.90;;;;;;5070156;28;20383;-79
2022/01/22 03:49:40;;;;;;;4.45;3.78;;;3.80;66.70;;;;;;5069815;28;20016;-79
2022/01/22 03:52:10;;;;;;;3.55;3.00;;;3.90;66.90;;;;;;5086383;28;20177;-80
2022/01/22 03:54:36;;;;;;;4.28;3.22;;;3.80;66.80;;;;;;5069858;28;20546;-80
2022/01/22 03:57:03;;;;;;;5.32;3.35;;;3.80;66.80;;;;;;5069825;28;20522;-80
2022/01/22 03:59:35;;;;;;;;;;;3.80;66.80;;;;;;5070145;28;20017;-79
2022/01/22 04:05:01;;;;;;;3.80;3.45;;;3.80;66.80;;;;;;5086633;28;20472;-79
2022/01/22 04:10:04;;;;;;;3.45;3.15;;;3.70;66.70;;;;;;5086082;28;20115;-79
2022/01/22 04:15:04;;;;;;;;;;;3.60;66.60;;;;;;5086345;28;20020;-81
2022/01/22 04:25:29;;;;;;;3.95;3.08;;;3.50;66.50;;;;;;5085803;28;20558;-80
2022/01/22 04:27:56;;;;;;;6.65;3.72;;;3.50;66.60;;;;;;5086105;28;20384;-80
2022/01/22 04:30:24;;;;;;;4.03;3.30;;;3.50;66.60;;;;;;5068712;28;20609;-80
2022/01/22 04:32:50;;;;;;;4.22;3.60;;;3.40;66.40;;;;;;5070129;28;20024;-80
2022/01/22 04:35:18;;;;;;;5.63;3.70;;;3.40;66.50;;;;;;5051939;28;20052;-81
2022/01/22 04:37:45;;;;;;;4.65;3.63;;;3.40;66.50;;;;;;5070007;28;20037;-80
2022/01/22 04:40:12;;;;;;;4.15;3.42;;;3.40;66.50;;;;;;5070000;28;20029;-80
2022/01/22 04:42:40;;;;;;;4.82;3.60;;;3.30;66.40;;;;;;5069010;28;20487;-81
2022/01/22 04:56:08;;;;;;;4.07;3.67;;;3.20;66.30;;;;;;5085338;28;20044;-79
2022/01/22 04:58:34;;;;;;;3.75;3.40;;;3.20;66.30;;;;;;5068699;28;20115;-79
2022/01/22 05:01:00;;;;;;;4.55;3.58;;;3.20;66.30;;;;;;5085379;28;20038;-81
2022/01/22 05:03:47;;;;;;;4.80;3.67;;;3.20;66.30;;;;;;5070071;28;20051;-80
2022/01/22 05:06:49;;;;;;;5.57;3.40;;;3.20;66.30;;;;;;5058735;28;20055;-79
2022/01/22 05:09:27;;;;;;;4.18;3.63;;;3.10;66.20;;;;;;5068519;28;20487;-79
2022/01/22 05:11:57;;;;;;;3.63;3.30;;;3.10;66.20;;;;;;5085710;28;20086;-79
2022/01/22 05:14:24;;;;;;;4.18;3.40;;;3.10;66.20;;;;;;5069330;28;20030;-80
2022/01/22 05:16:51;;;;;;;4.88;4.22;;;3.10;66.20;;;;;;5085363;28;20036;-79
2022/01/22 05:19:28;;;;;;;4.10;3.70;;;3.00;66.10;;;;;;5069368;28;20040;-80
2022/01/22 05:21:59;;;;;;;3.65;3.33;;;3.00;66.10;;;;;;5068610;28;20131;-79
2022/01/22 05:24:29;;;;;;;3.42;3.10;;;3.00;66.20;;;;;;5068307;28;20059;-79
2022/01/22 05:27:22;;;;;;;4.38;3.53;;;3.00;66.20;;;;;;5068673;28;20029;-79
2022/01/22 05:38:23;;;;;;;4.07;3.42;;;2.90;66.00;;;;;;5085189;28;19931;-79
2022/01/22 05:40:50;;;;;;;3.55;3.20;;;2.90;66.00;;;;;;5069689;28;20020;-79
2022/01/22 05:43:16;;;;;;;5.43;3.38;;;2.90;66.00;;;;;;5069546;28;20056;-79
2022/01/22 05:45:42;;;;;;;4.05;3.50;;;2.90;66.00;;;;;;5071337;28;20036;-79
2022/01/22 05:48:08;;;;;;;3.78;3.40;;;2.80;65.90;;;;;;5063830;28;20040;-79
2022/01/22 05:50:51;;;;;;;5.93;3.47;;;2.80;65.90;;;;;;5049608;28;20029;-79
2022/01/22 05:59:47;;;;;;;3.47;3.17;;;2.70;65.80;;;;;;5075451;28;20035;-81
2022/01/22 06:01:45;;;;;;;4.03;3.30;;;2.70;65.80;;;;;;5059864;28;20647;-78
2022/01/22 06:04:16;;;;;;;3.85;3.45;;;2.70;65.80;;;;;;5068301;28;20124;-81
2022/01/22 06:06:44;;;;;;;3.83;3.45;;;2.70;65.80;;;;;;5068041;28;20024;-79
2022/01/22 06:09:10;;;;;;;4.20;3.55;;;2.70;65.80;;;;;;5067384;28;20032;-80
2022/01/22 06:14:35;;;;;;;3.70;3.40;;;2.70;65.80;;;;;;5047780;28;20056;-79
2022/01/22 06:17:02;;;;;;;4.03;3.35;;;2.70;65.80;;;;;;5064015;28;20558;-80
2022/01/22 06:19:37;;;;;;;3.95;3.55;;;2.60;65.60;;;;;;5051914;28;20025;-82
2022/01/22 06:22:03;;;;;;;3.72;3.35;;;2.60;65.60;;;;;;5068347;28;20044;-82
2022/01/22 06:24:31;;;;;;;3.70;3.22;;;2.60;65.60;;;;;;5068637;28;20028;-80
2022/01/22 06:26:58;;;;;;;3.72;3.30;;;2.60;65.70;;;;;;5068793;28;20496;-81
2022/01/22 06:29:24;;;;;;;3.92;3.63;;;2.60;65.60;;;;;;5053065;28;20462;-81
2022/01/22 06:31:50;;;;;;;3.92;3.28;;;2.50;65.50;;;;;;5057287;28;20020;-82
2022/01/22 06:34:17;;;;;;;6.45;3.28;;;2.60;65.70;;;;;;5067247;28;20029;-82
2022/01/22 06:36:43;;;;;;;4.57;3.60;;;2.50;65.50;;;;;;5067326;28;20036;-81
2022/01/22 06:39:15;;;;;;;4.13;3.55;;;2.50;65.50;;;;;;5068047;28;20070;-82
2022/01/22 06:41:59;;;;;;;3.58;2.80;;;2.50;65.50;;;;;;5068774;28;20062;-81
2022/01/22 06:44:34;;;;;;;4.70;3.30;;;2.40;65.40;;;;;;5069049;28;20021;-79
2022/01/22 06:47:20;;;;;;;3.83;3.40;;;2.40;65.30;;;;;;5068873;28;20063;-81
2022/01/22 06:49:59;;;;;;;3.78;3.38;;;2.50;65.50;;;;;;5048401;28;20052;-78
2022/01/22 06:52:56;;;;;;;3.85;3.50;;;2.40;65.40;;;;;;5042257;28;20073;-78
2022/01/22 06:55:40;;;;;;;3.95;3.30;;;2.40;65.40;;;;;;5049336;28;20033;-78
2022/01/22 06:58:06;;;;;;;4.30;3.42;;;2.40;65.40;;;;;;5066464;28;20037;-78
2022/01/22 07:00:34;;;;;;;4.57;4.00;;;2.40;65.40;;;;;;5064172;28;20050;-79
2022/01/22 07:03:20;;;;;;;4.30;3.67;;;2.40;65.40;;;;;;5055062;28;20113;-80
2022/01/22 07:05:53;;;;;;;4.72;4.10;;;2.40;65.40;;;;;;5055104;28;20029;-81
2022/01/22 07:08:19;;;;;;;4.30;3.90;;;2.40;65.30;;;;;;5052743;28;20032;-78
2022/01/22 07:10:50;;;;;;;5.22;4.05;;;2.30;65.10;;;;;;5080263;28;20041;-78
2022/01/22 07:13:16;;;;;;;5.68;4.80;;;2.30;65.00;;;;;;5046972;28;20641;-79
2022/01/22 07:15:44;;;;;;;6.38;4.43;;;2.20;64.90;;;;;;5047074;28;20033;-79
2022/01/22 07:18:16;;;;;;;6.20;5.07;;;2.20;64.80;;;;;;5053405;28;20028;-87
2022/01/22 07:20:44;;;;;;;5.32;4.63;;;2.10;64.70;;;;;;5066915;28;20048;-79
2022/01/22 07:23:17;;;;;;;8.65;6.43;;;2.10;65.70;;;;;;5062959;28;20040;-79
2022/01/22 07:25:59;;;;;;;7.72;5.88;;;2.30;65.80;;;;;;5067075;28;20438;-79
2022/01/22 07:28:48;;;;;;;6.43;5.57;;;2.50;65.90;;;;;;5058939;28;20033;-78
2022/01/22 07:31:16;;;;;;;6.93;4.95;;;2.50;65.60;;;;;;5065970;28;20124;-78
2022/01/22 07:33:43;;;;;;;5.60;4.68;;;2.60;65.60;;;;;;5066103;28;20033;-78
2022/01/22 07:36:10;;;;;;;6.47;5.28;;;2.70;65.60;;;;;;5065581;28;20044;-79
2022/01/22 07:38:38;;;;;;;5.13;4.32;;;2.70;65.60;;;;;;5061179;28;20055;-81
2022/01/22 07:41:07;;;;;;;7.38;5.32;;;2.60;65.30;;;;;;5062768;28;20033;-80
2022/01/22 07:43:36;;;;;;;6.28;5.03;;;2.60;65.40;;;;;;5063515;28;20020;-77
2022/01/22 07:46:06;;;;;;;5.13;4.63;;;2.60;65.40;;;;;;5065815;28;20034;-78
2022/01/22 07:48:39;;;;;;;5.20;4.70;;;2.50;65.30;;;;;;5065963;28;20025;-77
2022/01/22 07:51:12;;;;;;;5.88;4.70;;;2.50;65.40;;;;;;5066901;28;20024;-83
2022/01/22 07:53:40;;;;;;;7.75;5.35;;;2.40;65.20;;;;;;5062295;28;20039;-82
2022/01/22 07:56:15;;;;;;;7.30;5.35;;;2.40;65.30;;;;;;5063627;28;20492;-85
2022/01/22 07:58:41;;;;;;;6.22;4.63;;;2.40;65.30;;;;;;5065362;28;20029;-84
2022/01/22 08:01:08;;;;;;;6.25;4.95;;;2.30;65.20;;;;;;5066163;28;20116;-83
2022/01/22 08:03:54;;;;;;;6.97;5.15;;;2.30;65.20;;;;;;5067484;28;20082;-85
2022/01/22 08:06:39;;;;;;;6.40;5.63;;;2.30;65.20;;;;;;5066410;28;20099;-85
2022/01/22 08:09:23;;;;;;;6.32;5.30;;;2.30;65.20;;;;;;5073310;28;20056;-84
2022/01/22 08:11:59;;;;;;;6.68;5.25;;;2.30;65.20;;;;;;5067393;28;20391;-86
2022/01/22 08:14:26;;;;;;;7.10;5.22;;;2.30;65.30;;;;;;5062919;28;20079;-82
2022/01/22 08:16:52;;;;;;;5.70;4.95;;;2.30;65.20;;;;;;5047122;28;20051;-84
2022/01/22 08:19:23;;;;;;;5.63;5.07;;;2.20;65.10;;;;;;5061252;28;20116;-84
2022/01/22 08:21:49;;;;;;;6.40;5.50;;;2.20;65.10;;;;;;5065902;28;20557;-84
2022/01/22 08:24:42;;;;;;;5.35;3.90;;;2.20;65.10;;;;;;5030215;28;20045;-81
2022/01/22 08:27:35;;;;;;;6.75;5.60;;;2.20;65.00;;;;;;5046058;28;20400;-84
2022/01/22 08:30:04;;;;;;;6.72;5.22;;;2.20;65.10;;;;;;5050467;28;20112;-82
2022/01/22 08:37:45;;;;;;;6.47;5.60;;;2.20;65.10;;;;;;5070668;28;20049;-81
2022/01/22 08:40:12;;;;;;;7.40;5.57;;;2.20;65.00;;;;;;5069021;28;20039;-83
2022/01/22 08:42:39;;;;;;;8.55;6.30;;;2.20;65.00;;;;;;5069255;28;20111;-82
2022/01/22 08:45:07;;;;;;;6.82;5.95;;;2.20;65.00;;;;;;5070548;28;20379;-82
2022/01/22 08:47:35;;;;;;;8.23;6.35;;;2.20;65.00;;;;;;5068093;28;20048;-81
2022/01/22 08:50:01;;;;;;;8.13;5.65;;;2.20;64.90;;;;;;5064934;28;20496;-84
2022/01/22 08:52:31;;;;;;;7.88;6.32;;;2.20;64.90;;;;;;5062867;28;20526;-83
2022/01/22 08:54:57;;;;;;;8.55;6.63;;;2.20;64.90;;;;;;5068819;28;20028;-83
2022/01/22 08:57:24;;;;;;;10.20;7.10;;;2.30;65.10;;;;;;5051739;28;20102;-84
2022/01/22 09:00:01;;;;;;;8.45;7.07;;;2.30;65.20;;;;;;5063806;28;20093;-80
2022/01/22 09:02:28;;;;;;;8.23;6.15;;;2.40;65.30;;;;;;5048020;28;20029;-83
2022/01/22 09:05:35;;;;;;;6.95;5.97;;;2.40;65.30;;;;;;5045849;28;20033;-81
2022/01/22 09:08:21;;;;;;;8.57;6.40;;;2.40;65.10;;;;;;5035410;28;20519;-80
2022/01/22 09:11:09;;;;;;;9.30;7.15;;;2.50;65.20;;;;;;5047652;28;20041;-85
2022/01/22 09:13:53;;;;;;;8.05;5.88;;;2.50;65.20;;;;;;5068877;28;20416;-83
2022/01/22 09:16:23;;;;;;;7.90;6.97;;;2.50;65.10;;;;;;5046515;28;20128;-79
2022/01/22 09:18:51;;;;;;;7.65;6.25;;;2.50;65.10;;;;;;5066212;28;20026;-80
2022/01/22 09:21:17;;;;;;;8.45;6.88;;;2.60;65.20;;;;;;5060940;28;20151;-80
2022/01/22 09:23:43;;;;;;;7.80;6.72;;;2.60;65.20;;;;;;5058798;28;20025;-83
2022/01/22 09:26:17;;;;;;;10.63;7.43;;;2.60;65.20;;;;;;5063726;28;20052;-82
2022/01/22 09:28:46;;;;;;;8.23;6.95;;;2.60;65.20;;;;;;5069458;28;20091;-86
2022/01/22 09:31:12;;;;;;;12.00;7.93;;;2.60;65.20;;;;;;5066582;28;20093;-82
2022/01/22 09:33:40;;;;;;;7.95;6.55;;;2.70;65.30;;;;;;5049600;28;20040;-81
2022/01/22 09:36:19;;;;;;;8.90;7.25;;;2.70;65.30;;;;;;5050695;28;20037;-85
2022/01/22 09:38:49;;;;;;;10.05;7.22;;;2.70;65.20;;;;;;5062924;28;20383;-89
2022/01/22 09:41:25;;;;;;;9.25;7.60;;;2.70;65.20;;;;;;5077501;28;20400;-83
2022/01/22 09:44:10;;;;;;;10.63;7.30;;;2.70;65.20;;;;;;5054385;28;20029;-87
2022/01/22 09:46:56;;;;;;;10.93;7.55;;;2.80;65.30;;;;;;5048336;28;20120;-90
2022/01/22 09:49:58;;;;;;;9.18;8.00;;;2.80;65.20;;;;;;5007188;28;20026;-84
2022/01/22 09:52:45;;;;;;;9.57;7.43;;;2.90;65.40;;;;;;5047156;28;20037;-84
2022/01/22 09:55:37;;;;;;;9.02;7.30;;;2.90;65.30;;;;;;5054124;28;20040;-83
2022/01/22 09:58:20;;;;;;;8.20;6.95;;;2.90;65.30;;;;;;5053558;28;20033;-83
2022/01/22 10:01:24;;;;;;;8.60;7.25;;;2.90;65.30;;;;;;5051936;28;20043;-85
2022/01/22 10:03:58;;;;;;;8.55;7.57;;;3.00;65.50;;;;;;5072651;28;20522;-84
2022/01/22 10:06:50;;;;;;;10.63;8.10;;;3.00;65.40;;;;;;5047233;28;20226;-83
2022/01/22 10:09:35;;;;;;;9.98;8.05;;;3.00;65.30;;;;;;5064032;28;20025;-84
2022/01/22 10:12:22;;;;;;;9.13;7.30;;;3.10;65.50;;;;;;5081955;28;20075;-84
2022/01/22 10:15:11;;;;;;;10.52;7.80;;;3.20;65.70;;;;;;5069690;28;20039;-82
2022/01/22 10:17:43;;;;;;;11.00;8.82;;;3.20;65.60;;;;;;5069974;28;20154;-83
2022/01/22 10:20:22;;;;;;;11.60;8.35;;;3.30;65.70;;;;;;5051858;28;20133;-84
2022/01/22 10:22:49;;;;;;;11.93;9.13;;;3.40;65.70;;;;;;5068495;28;20032;-82
2022/01/22 10:25:45;;;;;;;11.43;9.20;;;3.50;65.70;;;;;;5068272;28;20095;-82
2022/01/22 10:28:22;;;;;;;10.05;8.63;;;3.60;65.80;;;;;;5068076;28;20157;-82
2022/01/22 10:31:00;;;;;;;10.50;7.82;;;3.70;65.80;;;;;;5067976;28;20455;-82
2022/01/22 10:34:07;;;;;;;10.70;8.75;;;3.80;65.80;;;;;;5057426;28;20036;-84
2022/01/22 10:36:59;;;;;;;10.88;9.32;;;3.90;65.90;;;;;;5069012;28;20048;-83
2022/01/22 10:39:42;;;;;;;12.82;9.32;;;3.90;65.80;;;;;;5070004;28;20040;-85
2022/01/22 10:42:26;;;;;;;11.65;9.68;;;4.00;65.90;;;;;;5070023;28;20086;-81
2022/01/22 10:44:59;;;;;;;12.73;9.70;;;4.10;66.10;;;;;;5069854;28;20056;-83
2022/01/22 10:47:26;;;;;;;13.50;9.85;;;4.20;66.30;;;;;;5069241;28;20039;-86
2022/01/22 10:49:52;;;;;;;12.25;9.45;;;4.20;66.20;;;;;;5084630;28;20025;-85
2022/01/22 10:52:18;;;;;;;11.02;9.63;;;4.20;66.20;;;;;;5072528;28;20024;-85
2022/01/22 10:54:46;;;;;;;11.60;9.68;;;4.40;66.40;;;;;;5068883;28;20048;-87
2022/01/22 10:57:25;;;;;;;12.43;9.25;;;4.50;66.60;;;;;;5070041;28;20047;-87
2022/01/22 10:59:56;;;;;;;12.32;10.23;;;4.60;66.60;;;;;;5074673;28;20039;-86
2022/01/22 11:02:36;;;;;;;12.43;9.80;;;4.70;66.70;;;;;;5074809;28;20017;-86
2022/01/22 11:05:04;;;;;;;12.15;10.77;;;4.80;66.70;;;;;;5082665;28;20040;-83
2022/01/22 11:07:30;;;;;;;12.85;10.82;;;4.90;66.70;;;;;;5072183;28;20048;-84
2022/01/22 11:09:56;;;;;;;11.20;10.07;;;5.10;66.80;;;;;;5092694;28;20054;-85
2022/01/22 11:12:22;;;;;;;12.95;9.65;;;5.20;66.90;;;;;;5093616;28;20051;-84
2022/01/22 11:14:48;;;;;;;11.73;10.20;;;5.40;67.00;;;;;;5093188;28;20052;-85
2022/01/22 11:17:14;;;;;;;11.38;9.98;;;5.50;67.00;;;;;;5093586;28;20039;-82
2022/01/22 11:19:44;;;;;;;11.50;9.93;;;5.70;67.10;;;;;;5093491;28;20028;-83
2022/01/22 11:22:11;;;;;;;10.70;9.45;;;5.80;67.10;;;;;;5092536;28;20235;-82
2022/01/22 11:24:42;;;;;;;13.00;10.27;;;5.90;67.10;;;;;;5093363;28;20051;-82
2022/01/22 11:27:11;;;;;;;13.93;11.13;;;6.10;67.20;;;;;;5085976;28;20024;-82
2022/01/22 11:29:41;;;;;;;12.70;11.10;;;6.20;67.20;;;;;;5070019;28;20033;-82
2022/01/22 11:32:12;;;;;;;13.13;10.85;;;6.30;67.30;;;;;;5068794;28;20043;-84
2022/01/22 11:34:41;;;;;;;11.55;10.30;;;6.40;67.30;;;;;;5068459;28;20029;-87
2022/01/22 11:37:10;;;;;;;14.70;10.75;;;6.50;67.40;;;;;;5067376;28;20503;-84
2022/01/22 11:39:37;;;;;;;11.45;10.25;;;6.70;67.60;;;;;;5049078;28;20049;-85
2022/01/22 11:42:04;;;;;;;13.88;10.38;;;6.70;67.50;;;;;;5048109;28;20488;-83
2022/01/22 11:44:46;;;;;;;11.60;10.40;;;6.90;67.70;;;;;;5047898;28;20035;-85
2022/01/22 11:47:14;;;;;;;11.15;9.95;;;7.00;67.80;;;;;;5046978;28;20451;-85
2022/01/22 11:49:41;;;;;;;12.95;11.55;;;7.00;67.60;;;;;;5064137;28;20046;-82
2022/01/22 11:52:07;;;;;;;14.38;11.73;;;7.20;67.80;;;;;;5068683;28;20395;-83
2022/01/22 11:54:48;;;;;;;12.43;10.77;;;7.20;67.70;;;;;;5068501;28;20020;-84
2022/01/22 11:57:16;;;;;;;13.32;10.75;;;7.30;67.80;;;;;;5068708;28;20237;-84
2022/01/22 11:59:43;;;;;;;12.55;11.25;;;7.40;67.80;;;;;;5033154;28;20025;-84
2022/01/22 12:02:13;;;;;;;14.52;11.55;;;7.50;67.90;;;;;;5067644;28;20036;-82
2022/01/22 12:04:39;;;;;;;12.00;10.70;;;7.50;67.80;;;;;;5067348;28;20044;-85
2022/01/22 12:07:07;;;;;;;12.15;10.05;;;7.60;67.90;;;;;;5067265;28;20048;-83
2022/01/22 12:15:22;;;;;;;10.50;8.35;;;7.80;67.90;;;;;;5068459;28;20115;-80
2022/01/22 12:17:49;;;;;;;10.07;8.15;;;7.90;68.10;;;;;;5049298;28;20052;-81
2022/01/22 12:23:13;;;;;;;10.18;8.95;;;8.10;68.60;;;;;;5067878;28;20040;-90
2022/01/22 12:25:40;;;;;;;10.77;8.07;;;8.20;68.50;;;;;;5068379;28;20029;-82
2022/01/22 12:28:08;;;;;;;12.18;9.15;;;8.40;68.70;;;;;;5066147;28;20024;-82
2022/01/22 12:30:45;;;;;;;11.82;9.30;;;8.50;68.80;;;;;;5058961;28;20028;-82
2022/01/22 12:33:35;;;;;;;10.68;9.20;;;8.60;68.80;;;;;;5062148;28;20043;-87
2022/01/22 12:36:08;;;;;;;10.57;8.52;;;8.70;68.80;;;;;;5067268;28;20094;-88
2022/01/22 12:38:53;;;;;;;12.40;10.05;;;8.70;68.70;;;;;;5067533;28;20052;-81
2022/01/22 12:44:07;;;;;;;10.77;9.10;;;8.70;68.60;;;;;;5067337;28;20681;-80
2022/01/22 12:46:35;;;;;;;14.07;9.80;;;8.70;68.60;;;;;;5067538;28;20043;-81
2022/01/22 12:49:05;;;;;;;11.63;9.10;;;8.60;68.60;;;;;;5066784;28;20476;-81
2022/01/22 12:51:33;;;;;;;12.23;8.98;;;8.60;68.70;;;;;;5067615;28;20637;-82
2022/01/22 12:53:59;;;;;;;10.52;8.85;;;8.60;68.70;;;;;;5066968;28;20517;-78
2022/01/22 12:59:08;;;;;;;11.82;9.93;;;8.50;68.70;;;;;;5069691;28;20040;-81
2022/01/22 13:01:36;;;;;;;11.13;10.00;;;8.50;68.80;;;;;;5069779;28;20037;-81
2022/01/22 13:04:06;;;;;;;15.05;9.63;;;8.40;68.70;;;;;;5069829;28;20033;-81
2022/01/22 13:06:52;;;;;;;10.98;8.30;;;8.40;68.90;;;;;;5069259;28;20060;-84
2022/01/22 13:09:47;;;;;;;12.85;9.43;;;8.40;68.90;;;;;;5070578;28;20021;-83
2022/01/22 13:12:13;;;;;;;11.07;9.07;;;8.40;68.90;;;;;;5070782;28;20039;-83
2022/01/22 13:14:39;;;;;;;11.98;8.25;;;8.50;69.10;;;;;;5053717;28;20021;-82
2022/01/22 13:17:12;;;;;;;12.23;8.45;;;8.60;69.10;;;;;;5071003;28;20048;-91
2022/01/22 13:19:39;;;;;;;13.18;9.18;;;8.80;69.60;;;;;;5069070;28;20175;-79
2022/01/22 13:22:07;;;;;;;12.07;8.95;;;8.90;69.50;;;;;;5069645;28;20048;-79
2022/01/22 13:24:36;;;;;;;9.93;8.25;;;9.00;69.40;;;;;;5069904;28;20032;-80
2022/01/22 13:27:09;;;;;;;12.88;8.57;;;9.20;69.50;;;;;;5070535;28;20040;-80
2022/01/22 13:29:41;;;;;;;11.27;8.73;;;9.20;69.30;;;;;;5070150;28;20494;-79
2022/01/22 13:45:06;;;;;;;15.48;9.77;;;9.60;69.40;;;;;;5070537;28;20028;-78
2022/01/22 13:49:31;;;;;;;15.25;9.68;;;9.90;69.50;;;;;;5097058;28;20038;-93
2022/01/22 13:52:04;;;;;;;14.30;9.90;;;10.00;69.50;;;;;;5098011;28;20032;-91
2022/01/22 13:54:31;;;;;;;;;;;10.10;69.50;;;;;;5090550;28;20036;-82
2022/01/22 13:57:04;;;;;;;13.25;9.57;;;10.20;69.50;;;;;;5069120;28;20050;-81
2022/01/22 13:59:42;;;;;;;11.73;9.52;;;10.20;69.30;;;;;;5060799;28;20035;-83
2022/01/22 14:02:49;;;;;;;14.35;9.65;;;10.30;69.30;;;;;;5052567;28;20028;-85
2022/01/22 14:05:00;;;;;;;14.10;9.60;;;10.30;69.10;;;;;;5050729;28;20080;-82
2022/01/22 14:07:33;;;;;;;12.65;9.65;;;10.30;69.10;;;;;;5051679;28;20017;-82
2022/01/22 14:10:04;;;;;;;;;;;10.30;69.00;;;;;;5073484;28;20024;-82
2022/01/22 14:12:58;;;;;;;13.77;9.02;;;10.30;69.10;;;;;;5054865;28;19912;-83
2022/01/22 14:15:29;;;;;;;11.23;8.85;;;10.30;69.20;;;;;;5071097;28;20091;-85
2022/01/22 14:18:20;;;;;;;12.63;9.55;;;10.40;69.20;;;;;;5072181;28;20086;-82
2022/01/22 14:20:53;;;;;;;13.50;8.65;;;10.50;69.20;;;;;;5058545;28;20340;-81
2022/01/22 14:23:24;;;;;;;18.92;11.02;;;10.50;69.00;;;;;;5051639;28;20040;-82
2022/01/22 14:26:08;;;;;;;11.95;8.73;;;10.60;69.00;;;;;;5051002;28;20365;-79
2022/01/22 14:28:42;;;;;;;12.50;8.68;;;10.60;68.90;;;;;;5056628;28;20059;-83
2022/01/22 14:31:27;;;;;;;10.27;9.10;;;10.50;68.60;;;;;;5071299;28;20059;-83
2022/01/22 14:34:06;;;;;;;11.82;8.48;;;10.60;68.70;;;;;;5069487;28;20021;-83
2022/01/22 14:36:41;;;;;;;12.27;9.23;;;10.60;68.60;;;;;;5086185;28;20066;-84
2022/01/22 14:39:25;;;;;;;11.68;8.85;;;10.60;68.60;;;;;;5070899;28;20047;-82
2022/01/22 14:44:44;;;;;;;9.43;8.40;;;10.60;68.40;;;;;;5069838;28;20029;-83
2022/01/22 14:47:12;;;;;;;11.25;8.95;;;10.50;68.20;;;;;;5068511;28;20040;-84
2022/01/22 14:49:39;;;;;;;9.68;8.25;;;10.50;68.10;;;;;;5068016;28;20044;-83
2022/01/22 14:52:07;;;;;;;12.20;9.05;;;10.50;68.00;;;;;;5067989;28;20036;-84
2022/01/22 14:54:53;;;;;;;10.57;8.70;;;10.50;68.00;;;;;;5068802;28;20346;-81
2022/01/22 14:57:22;;;;;;;10.45;8.48;;;10.40;67.60;;;;;;5062987;28;20037;-86
2022/01/22 14:59:48;;;;;;;11.07;8.48;;;10.40;67.80;;;;;;5078792;28;20400;-85
2022/01/22 15:02:15;;;;;;;10.25;8.15;;;10.40;67.80;;;;;;5048716;28;20660;-85
2022/01/22 15:04:42;;;;;;;14.82;10.07;;;10.40;67.70;;;;;;5047981;28;20369;-86
2022/01/22 15:07:11;;;;;;;11.10;9.48;;;10.30;67.60;;;;;;5049606;28;20047;-86
2022/01/22 15:09:40;;;;;;;12.35;9.02;;;10.30;67.50;;;;;;5064184;28;20124;-85
2022/01/22 15:12:08;;;;;;;10.43;9.23;;;10.30;67.60;;;;;;5068778;28;20108;-84
2022/01/22 15:14:35;;;;;;;11.73;9.00;;;10.20;67.40;;;;;;5068381;28;20542;-84
2022/01/22 15:19:42;;;;;;;11.45;8.88;;;10.20;67.40;;;;;;5067441;28;20028;-86
2022/01/22 15:22:10;;;;;;;10.93;8.82;;;10.20;67.40;;;;;;5062093;28;20068;-86